• Join FlightAware (Why Join?)
  • Login
  • US Flag 
01:45AM EDT


 

Airport Tracker/Info


-or-


 

Live Flight TrackerFlight Track Log ✈ AMF1324 ✈ 05-Nov-2013 ✈ KBGM - KBUF

Flight Track Log - Related Links

Times and Time Zones

All times are in EST time to prevent confusion due to time zone crossing. See the AMF1324 flight status page for this flight to view local times or setup timezone preferences in your user account.

Time Position Orientation Groundspeed Altitude Reporting Facility
EST Latitude Longitude Course Direction KTS MPH feet Rate Location/Type
08:20AM 42.1658 -76.0139 291° West 182 209 5,200  Level New York Center
08:21AM 42.1836 -76.0769 291° West 182 209 7,300 1,800 Climbing New York Center
08:22AM 42.2014 -76.1483 289° West 187 215 8,800 1,500 Climbing New York Center
08:23AM 42.2211 -76.2144 292° West 197 227 10,400 900 Climbing New York Center
08:25AM 42.2811 -76.3928 295° West 211 243 12,000 480 Climbing Cleveland Center
08:26AM 42.3064 -76.4703 294° West 221 254 12,100  Climbing Cleveland Center
08:27AM 42.3294 -76.5419 294° West 214 246 12,100  Level Cleveland Center
08:29AM 42.3561 -76.6203 295° West 219 252 12,100  Level Cleveland Center
08:30AM 42.3864 -76.7028 296° West 234 269 12,100  Level Cleveland Center
08:31AM 42.4094 -76.7789 292° West 229 264 12,100  Level Cleveland Center
08:32AM 42.4319 -76.8633 290° West 210 242 12,100  Level Cleveland Center
08:33AM 42.4539 -76.9389 292° West 211 243 12,100  Level Cleveland Center
08:34AM 42.4814 -77.0181 295° West 224 258 12,100  Level Cleveland Center
08:35AM 42.5081 -77.0911 296° West 220 253 12,100 -60 Level Cleveland Center
08:36AM 42.5297 -77.1661 291° West 216 249 12,000 -60 Descending Cleveland Center
08:37AM 42.5561 -77.2414 295° West 220 253 12,000  Level Cleveland Center
08:38AM 42.5858 -77.3300 295° West 217 250 12,000  Level Cleveland Center
08:39AM 42.6103 -77.4053 294° West 218 251 12,000  Level Cleveland Center
08:40AM 42.6356 -77.4792 295° West 217 250 12,000  Level Cleveland Center
08:41AM 42.6603 -77.5536 294° West 217 250 12,000  Level Cleveland Center
08:42AM 42.6856 -77.6292 294° West 220 253 12,000  Level Cleveland Center
08:43AM 42.7081 -77.7036 292° West 214 246 12,000  Level Cleveland Center
08:44AM 42.7317 -77.7792 293° West 217 250 12,000  Level Cleveland Center
08:45AM 42.7581 -77.8686 292° West 213 245 12,000  Level Cleveland Center
08:46AM 42.7869 -77.9419 298° West 213 245 12,000  Level Cleveland Center
08:47AM 42.8186 -78.0161 300° West 216 249 12,000 -420 Level Cleveland Center
08:48AM 42.8392 -78.0936 290° West 231 266 11,200 -660 Descending Cleveland Center
08:49AM 42.8569 -78.1797 286° West 229 264 10,700 -960 Descending Cleveland Center
08:50AM 42.8792 -78.2647 290° West 230 265 9,300 -1,320 Descending Cleveland Center
08:51AM 42.9069 -78.3467 295° West 229 264 8,000 -1,500 Descending Cleveland Center
08:52AM 42.9403 -78.4275 299° West 232 267 6,300 -1,920 Descending Cleveland Center
08:53AM 42.9694 -78.5119 295° West 236 272 4,100 -1,500 Descending Cleveland Center
08:54AM 42.9878 -78.5869 289° West 201 231 3,300 -660 Descending Cleveland Center
08:55AM 42.9892 -78.6358 272° West 138 159 2,800 -780 Descending Cleveland Center
08:56AM 42.9833 -78.6667 256° West 105 121 1,900 -900 Descending Buffalo TRACON
08:57AM 42.9667 -78.7000 236° Southwest 108 124 1,200 -720 Descending Buffalo TRACON
08:59AM 42.9333 -78.7167 294° West  Level FlightAware Approximate
09:06AM 42.9404 -78.7306 294° West  Level Estimated